createdAt,value
2018-11-20T07:19:49.371Z,989.52
2018-11-20T07:20:53.939Z,989.07
2018-11-20T07:22:00.001Z,988.84
2018-11-20T07:23:07.076Z,988.77
2018-11-20T07:24:12.181Z,988.77
2018-11-20T07:25:18.217Z,988.86
2018-11-20T07:26:24.295Z,988.98
2018-11-20T07:27:30.356Z,989.05
2018-11-20T07:28:36.426Z,989.18
2018-11-20T07:29:42.584Z,989.22
2018-11-20T07:30:48.667Z,989.20
2018-11-20T07:31:54.697Z,989.24
2018-11-20T07:33:00.716Z,989.20
2018-11-20T07:34:06.797Z,989.21
2018-11-20T07:35:12.853Z,989.15
2018-11-20T07:36:19.115Z,989.15
2018-11-20T07:37:25.207Z,989.11
2018-11-20T07:38:31.209Z,989.01
2018-11-20T07:39:37.162Z,989.00
2018-11-20T07:40:43.422Z,988.98
2018-11-20T07:41:49.319Z,988.91
2018-11-20T07:42:55.399Z,988.87
2018-11-20T07:44:01.526Z,988.92
2018-11-20T07:45:07.539Z,988.93
2018-11-20T07:46:13.621Z,989.01
2018-11-20T07:47:19.685Z,989.00
2018-11-20T07:48:25.758Z,989.04
2018-11-20T07:49:31.836Z,989.03
2018-11-20T07:50:37.918Z,989.01
2018-11-20T07:51:44.040Z,989.05
2018-11-20T07:52:50.063Z,988.99
2018-11-20T07:53:56.146Z,989.01
2018-11-20T07:55:02.224Z,988.98
2018-11-20T07:56:08.451Z,988.91
2018-11-20T07:57:14.390Z,988.91
2018-11-20T07:58:20.954Z,988.90
2018-11-20T07:59:26.529Z,988.87
2018-11-20T08:00:32.610Z,988.84
2018-11-20T08:01:39.200Z,988.85
2018-11-20T08:02:44.796Z,988.79
2018-11-20T08:03:50.843Z,988.71
2018-11-20T08:04:56.935Z,988.73
2018-11-20T08:06:03.010Z,988.67
2018-11-20T08:07:09.100Z,988.70
2018-11-20T08:08:15.179Z,988.71
2018-11-20T08:09:21.249Z,988.81
2018-11-20T08:10:27.320Z,988.70
2018-11-20T08:11:33.423Z,988.70
2018-11-20T08:12:39.502Z,988.67
2018-11-20T08:13:45.570Z,988.64
2018-11-20T08:14:51.681Z,988.67
2018-11-20T08:15:57.775Z,988.68
2018-11-20T08:17:03.835Z,988.65
2018-11-20T08:18:09.922Z,988.66
2018-11-20T08:19:16.004Z,988.65
2018-11-20T08:20:22.082Z,988.63
2018-11-20T08:21:28.684Z,988.62
2018-11-20T08:22:34.270Z,988.62
2018-11-20T08:23:40.359Z,988.63
2018-11-20T08:24:46.450Z,988.72
2018-11-20T08:25:52.649Z,988.62
2018-11-20T08:26:58.629Z,988.62
2018-11-20T08:28:04.716Z,988.60
2018-11-20T08:29:10.816Z,988.58
2018-11-20T08:30:16.891Z,988.53
2018-11-20T08:31:22.985Z,988.58
2018-11-20T08:32:29.080Z,988.52
2018-11-20T08:33:35.241Z,988.57
2018-11-20T08:34:41.264Z,988.56
2018-11-20T08:35:47.338Z,988.50
2018-11-20T08:36:53.443Z,988.48
2018-11-20T08:37:59.545Z,988.44
2018-11-20T08:39:05.620Z,988.50
2018-11-20T08:40:11.717Z,988.48
2018-11-20T08:41:17.812Z,988.49
2018-11-20T08:42:23.937Z,988.42
2018-11-20T08:43:30.009Z,988.39
2018-11-20T08:44:36.089Z,988.38
2018-11-20T08:45:42.190Z,988.39
2018-11-20T08:46:48.293Z,988.31
2018-11-20T08:47:54.499Z,988.35
2018-11-20T08:49:00.479Z,988.38
2018-11-20T08:50:06.575Z,988.38
2018-11-20T08:51:12.677Z,988.33
2018-11-20T08:52:19.370Z,988.24
2018-11-20T08:53:24.879Z,988.15
2018-11-20T08:54:30.974Z,988.09
2018-11-20T08:55:37.075Z,987.99
2018-11-20T08:56:43.184Z,987.98
2018-11-20T08:57:49.281Z,987.99
2018-11-20T08:58:55.397Z,988.01
2018-11-20T09:00:01.496Z,988.02
2018-11-20T09:01:07.612Z,987.96
2018-11-20T09:02:14.259Z,987.95
2018-11-20T09:03:19.854Z,987.87
2018-11-20T09:04:25.943Z,987.85
2018-11-20T09:05:32.049Z,987.83
2018-11-20T09:06:38.167Z,987.84
2018-11-20T09:07:44.277Z,987.76
2018-11-20T09:08:50.400Z,987.72
2018-11-20T09:09:56.589Z,987.72
2018-11-20T09:11:02.626Z,987.65
2018-11-20T09:12:08.752Z,987.58
2018-11-20T09:13:14.867Z,987.55
2018-11-20T09:14:20.990Z,987.64
2018-11-20T09:15:27.109Z,987.63
2018-11-20T09:16:33.726Z,987.52
2018-11-20T09:17:39.345Z,987.42
2018-11-20T09:18:45.695Z,987.35
2018-11-20T09:19:51.603Z,987.38
2018-11-20T09:20:57.749Z,987.50
2018-11-20T09:22:03.837Z,987.57
2018-11-20T09:23:09.980Z,987.64
2018-11-20T09:24:16.092Z,987.62
2018-11-20T09:25:22.197Z,987.51
2018-11-20T09:26:28.824Z,987.53
2018-11-20T09:27:34.445Z,987.62
2018-11-20T09:28:40.571Z,987.69
2018-11-20T09:29:46.691Z,987.73
2018-11-20T09:30:52.801Z,987.77
2018-11-20T09:31:58.926Z,987.81
2018-11-20T09:33:05.036Z,987.81
2018-11-20T09:34:11.205Z,987.79
2018-11-20T09:35:17.437Z,987.75
2018-11-20T09:36:23.406Z,987.66
2018-11-20T09:37:29.531Z,987.53
2018-11-20T09:38:35.644Z,987.51
2018-11-20T09:39:41.781Z,987.52
2018-11-20T09:40:47.889Z,987.52
2018-11-20T09:41:54.021Z,987.55
2018-11-20T09:43:00.141Z,987.56
2018-11-20T09:44:06.275Z,987.53
2018-11-20T09:45:12.399Z,987.47
2018-11-20T09:46:18.515Z,987.45
2018-11-20T09:47:24.643Z,987.40
2018-11-20T09:48:30.764Z,987.32
2018-11-20T09:49:36.896Z,987.19
2018-11-20T09:50:43.019Z,987.27
2018-11-20T09:51:49.153Z,987.26
2018-11-20T09:52:55.438Z,987.22
2018-11-20T09:54:01.406Z,987.20
2018-11-20T09:55:07.529Z,987.18
2018-11-20T09:56:13.649Z,987.24
2018-11-20T09:57:20.289Z,987.22
2018-11-20T09:58:25.913Z,987.31
2018-11-20T09:59:32.519Z,987.32
2018-11-20T10:00:38.659Z,987.41
2018-11-20T10:01:44.322Z,987.42
2018-11-20T10:02:50.416Z,987.43
2018-11-20T10:03:56.567Z,987.37
2018-11-20T10:05:02.685Z,987.34
2018-11-20T10:06:08.811Z,987.39
2018-11-20T10:07:14.968Z,987.29
2018-11-20T10:08:21.076Z,987.37
2018-11-20T10:09:27.203Z,987.22
2018-11-20T10:10:33.326Z,987.23
2018-11-20T10:11:39.446Z,987.16
2018-11-20T10:12:45.581Z,987.12
2018-11-20T10:13:51.764Z,987.15
2018-11-20T10:14:57.960Z,987.11
2018-11-20T10:16:04.460Z,987.25
2018-11-20T10:17:10.105Z,987.18
2018-11-20T10:18:16.239Z,987.19
2018-11-20T10:19:22.363Z,987.19
2018-11-20T10:20:28.497Z,987.20
2018-11-20T10:21:34.676Z,987.20
2018-11-20T10:22:40.749Z,987.28
2018-11-20T10:23:46.889Z,987.33
2018-11-20T10:24:53.090Z,987.22
2018-11-20T10:25:59.245Z,987.07
2018-11-20T10:27:05.274Z,987.10
2018-11-20T10:28:11.410Z,987.10
2018-11-20T10:29:17.547Z,987.07
2018-11-20T10:30:23.684Z,987.08
2018-11-20T10:31:29.830Z,987.09
2018-11-20T10:32:35.995Z,987.09
2018-11-20T10:33:42.097Z,986.96
2018-11-20T10:34:48.275Z,987.02
2018-11-20T10:35:54.377Z,987.01
2018-11-20T10:37:00.505Z,986.92
2018-11-20T10:38:07.639Z,986.96
2018-11-20T10:39:12.781Z,986.88
2018-11-20T10:40:18.950Z,986.81
2018-11-20T10:41:25.582Z,986.80
2018-11-20T10:42:31.205Z,986.80
2018-11-20T10:43:37.345Z,986.77
2018-11-20T10:44:43.583Z,986.70
2018-11-20T10:45:49.651Z,986.71
2018-11-20T10:46:55.789Z,986.75
2018-11-20T10:48:01.924Z,986.89
2018-11-20T10:49:08.071Z,986.94
2018-11-20T10:50:14.214Z,986.84
2018-11-20T10:51:20.373Z,986.94
2018-11-20T10:52:26.695Z,986.81
2018-11-20T10:53:32.643Z,986.79
2018-11-20T10:54:38.794Z,986.83
2018-11-20T10:55:44.935Z,986.83
2018-11-20T10:56:51.095Z,986.72
2018-11-20T10:57:57.233Z,986.69
2018-11-20T10:59:03.368Z,986.76
2018-11-20T11:00:09.511Z,986.80
2018-11-20T11:01:15.672Z,986.98
2018-11-20T11:02:21.810Z,986.97
2018-11-20T11:03:27.956Z,986.98
2018-11-20T11:04:34.086Z,986.86
2018-11-20T11:05:40.238Z,987.00
2018-11-20T11:06:47.084Z,987.06
2018-11-20T11:07:52.673Z,987.07
2018-11-20T11:08:58.675Z,987.10
2018-11-20T11:10:04.808Z,987.06
2018-11-20T11:11:10.960Z,987.10
2018-11-20T11:12:17.109Z,987.11
2018-11-20T11:13:23.233Z,987.16
2018-11-20T11:14:29.427Z,987.10
2018-11-20T11:15:35.521Z,987.02
2018-11-20T11:16:41.673Z,987.08
2018-11-20T11:17:47.815Z,986.93
2018-11-20T11:18:53.954Z,986.86
2018-11-20T11:20:00.099Z,986.89
2018-11-20T11:21:06.344Z,986.95
2018-11-20T11:22:12.405Z,986.97
2018-11-20T11:23:18.536Z,986.95
2018-11-20T11:24:24.685Z,986.87
2018-11-20T11:25:30.842Z,986.79
2018-11-20T11:26:36.990Z,986.73
2018-11-20T11:27:43.148Z,986.68
2018-11-20T11:28:51.341Z,986.51
2018-11-20T11:29:55.460Z,986.44
2018-11-20T11:31:01.637Z,986.43
2018-11-20T11:32:07.774Z,986.44
2018-11-20T11:33:13.925Z,986.52
2018-11-20T11:34:20.083Z,986.48
2018-11-20T11:35:26.248Z,986.48
2018-11-20T11:36:32.415Z,986.47
2018-11-20T11:37:38.583Z,986.45
2018-11-20T11:38:44.738Z,986.55
2018-11-20T11:39:50.908Z,986.46
2018-11-20T11:40:57.075Z,986.46
2018-11-20T11:42:03.232Z,986.44
2018-11-20T11:43:09.404Z,986.49
2018-11-20T11:44:16.059Z,986.51
2018-11-20T11:45:21.739Z,986.47
2018-11-20T11:46:27.894Z,986.50
2018-11-20T11:47:35.071Z,986.67
2018-11-20T11:48:40.242Z,986.77
2018-11-20T11:49:46.409Z,986.79
2018-11-20T11:50:52.561Z,986.82
2018-11-20T11:51:58.722Z,986.85
2018-11-20T11:53:04.890Z,986.97
2018-11-20T11:54:11.053Z,987.05
2018-11-20T11:55:17.208Z,987.06
2018-11-20T11:56:23.364Z,987.02
2018-11-20T11:57:29.522Z,987.03
2018-11-20T11:58:35.673Z,987.22
2018-11-20T11:59:41.817Z,987.28
2018-11-20T12:00:47.970Z,987.30
2018-11-20T12:06:18.719Z,987.42
2018-11-20T12:07:24.874Z,987.60
2018-11-20T12:08:31.026Z,987.64
2018-11-20T12:09:37.173Z,987.68
2018-11-20T12:10:43.308Z,987.77
2018-11-20T12:11:49.453Z,987.78
2018-11-20T12:12:55.584Z,987.82
2018-11-20T12:14:01.737Z,987.84
2018-11-20T12:15:08.389Z,987.78
2018-11-20T12:16:14.511Z,987.84
2018-11-20T12:17:20.150Z,987.87
2018-11-20T12:18:26.292Z,987.92
2018-11-20T12:19:32.428Z,987.96
2018-11-20T12:20:39.039Z,988.02
2018-11-20T12:21:44.692Z,988.10
2018-11-20T12:22:50.822Z,988.17
2018-11-20T12:23:56.972Z,988.15
2018-11-20T12:25:03.104Z,988.10
2018-11-20T12:26:09.228Z,988.13
2018-11-20T12:27:15.363Z,988.22
2018-11-20T12:28:21.500Z,988.33
2018-11-20T12:29:27.650Z,988.36
2018-11-20T12:30:34.839Z,988.41
2018-11-20T12:31:39.900Z,988.34
2018-11-20T12:32:49.193Z,988.35
2018-11-20T12:33:52.167Z,988.40
2018-11-20T12:34:58.297Z,988.40
2018-11-20T12:36:04.430Z,988.52
2018-11-20T12:37:11.067Z,988.57
2018-11-20T12:38:17.303Z,988.61
2018-11-20T12:39:22.820Z,988.68
2018-11-20T12:40:28.943Z,988.73
2018-11-20T12:41:35.076Z,988.78
2018-11-20T12:42:41.477Z,988.81
2018-11-20T12:43:47.329Z,988.89
2018-11-20T12:44:54.393Z,988.91
2018-11-20T12:45:59.595Z,988.98
2018-11-20T12:47:09.162Z,989.10
2018-11-20T12:48:11.847Z,989.08
2018-11-20T12:49:19.061Z,989.21
2018-11-20T12:50:24.108Z,989.28
2018-11-20T12:51:30.220Z,989.34
2018-11-20T12:52:36.348Z,989.36
2018-11-20T12:53:42.469Z,989.41
2018-11-20T12:54:50.557Z,989.42
2018-11-20T12:55:54.930Z,989.39
2018-11-20T12:57:00.838Z,989.39
2018-11-20T12:58:06.963Z,989.41
2018-11-20T12:59:14.004Z,989.43
2018-11-20T13:00:20.205Z,989.43
2018-11-20T13:01:25.322Z,989.37
2018-11-20T13:02:31.574Z,989.39
2018-11-20T13:03:37.570Z,989.44
2018-11-20T13:04:43.683Z,989.41
2018-11-20T13:05:49.813Z,989.41
2018-11-20T13:06:56.925Z,989.38
2018-11-20T13:08:02.239Z,989.47
2018-11-20T13:09:08.172Z,989.40
2018-11-20T13:10:15.298Z,989.46
2018-11-20T13:11:20.404Z,989.47
2018-11-20T13:12:26.519Z,989.47
2018-11-20T13:13:32.631Z,989.47
2018-11-20T13:14:38.759Z,989.46
2018-11-20T13:15:44.864Z,989.45
2018-11-20T13:16:50.977Z,989.45
2018-11-20T13:17:57.088Z,989.46
2018-11-20T13:19:03.202Z,989.46
2018-11-20T13:20:10.643Z,989.39
2018-11-20T13:21:15.432Z,989.46
2018-11-20T13:22:21.540Z,989.44
2018-11-20T13:23:29.321Z,989.34
2018-11-20T13:24:33.756Z,989.29
2018-11-20T13:25:39.880Z,989.26
2018-11-20T13:26:45.981Z,989.22
2018-11-20T13:27:52.083Z,989.17
2018-11-20T13:28:58.198Z,989.11
2018-11-20T13:30:04.305Z,989.23
2018-11-20T13:31:10.430Z,989.30
2018-11-20T13:32:16.542Z,989.33
2018-11-20T13:33:23.541Z,989.32
